createdAt,value
2023-05-01T00:01:44.913Z,97715.09
2023-05-01T00:06:49.940Z,97707.94
2023-05-01T00:11:53.235Z,97705.06
2023-05-01T00:16:56.495Z,97705.41
2023-05-01T00:22:01.435Z,97691.75
2023-05-01T00:27:05.735Z,97684.75
2023-05-01T00:32:09.670Z,97681.06
2023-05-01T00:37:14.358Z,97683.69
2023-05-01T00:42:17.817Z,97673.75
2023-05-01T00:47:21.504Z,97663.03
2023-05-01T00:52:26.770Z,97662.88
2023-05-01T00:57:29.962Z,97653.66
2023-05-01T01:02:33.169Z,97647.31
2023-05-01T01:07:50.523Z,97636.63
2023-05-01T01:13:04.493Z,97626.09
2023-05-01T01:18:13.220Z,97626.94
2023-05-01T01:23:46.995Z,97620.91
2023-05-01T01:29:13.111Z,97614.25
2023-05-01T01:34:21.830Z,97604.38
2023-05-01T01:39:31.410Z,97608.03
2023-05-01T01:44:39.460Z,97595.84
2023-05-01T01:49:47.946Z,97607.28
2023-05-01T01:54:56.016Z,97599.44
2023-05-01T01:59:59.586Z,97593.66
2023-05-01T02:05:06.627Z,97587.44
2023-05-01T02:10:12.650Z,97583.59
2023-05-01T02:15:19.139Z,97567.50
2023-05-01T02:20:23.955Z,97569.81
2023-05-01T02:25:31.905Z,97566.59
2023-05-01T02:30:35.131Z,97551.56
2023-05-01T02:35:44.090Z,97545.88
2023-05-01T02:40:53.170Z,97532.03
2023-05-01T02:45:59.125Z,97527.03
2023-05-01T02:51:06.070Z,97530.72
2023-05-01T02:56:09.828Z,97524.41
2023-05-01T03:01:13.303Z,97514.81
2023-05-01T03:06:19.448Z,97508.31
2023-05-01T03:11:24.597Z,97507.28
2023-05-01T03:16:27.904Z,97503.16
2023-05-01T03:21:33.882Z,97488.50
2023-05-01T03:26:37.257Z,97492.25
2023-05-01T03:31:40.678Z,97487.91
2023-05-01T03:36:47.270Z,97478.22
2023-05-01T03:41:50.713Z,97479.63
2023-05-01T03:47:06.321Z,97470.69
2023-05-01T03:52:16.134Z,97461.19
2023-05-01T03:57:21.012Z,97464.75
2023-05-01T04:02:24.718Z,97461.19
2023-05-01T04:07:29.587Z,97459.28
2023-05-01T04:12:32.904Z,97447.91
2023-05-01T04:17:36.826Z,97453.25
2023-05-01T04:22:41.607Z,97442.97
2023-05-01T04:27:44.821Z,97450.91
2023-05-01T04:32:49.459Z,97446.03
2023-05-01T04:37:54.316Z,97452.72
2023-05-01T04:42:57.818Z,97449.31
2023-05-01T04:48:01.357Z,97451.78
2023-05-01T04:53:06.069Z,97444.28
2023-05-01T04:58:11.089Z,97440.84
2023-05-01T05:03:14.619Z,97444.16
2023-05-01T05:08:19.489Z,97438.44
2023-05-01T05:13:26.629Z,97437.81
2023-05-01T05:18:35.549Z,97441.81
2023-05-01T05:23:41.175Z,97447.94
2023-05-01T05:28:45.532Z,97431.06
2023-05-01T05:33:48.776Z,97424.53
2023-05-01T05:38:54.481Z,97428.34
2023-05-01T05:43:57.731Z,97417.44
2023-05-01T05:49:01.634Z,97413.31
2023-05-01T05:54:07.931Z,97409.16
2023-05-01T05:59:12.870Z,97406.56
2023-05-01T06:04:17.038Z,97402.47
2023-05-01T06:09:22.982Z,97399.53
2023-05-01T06:14:26.458Z,97402.28
2023-05-01T06:19:29.664Z,97390.47
2023-05-01T06:24:43.495Z,97383.06
2023-05-01T06:29:47.878Z,97385.59
2023-05-01T06:34:51.641Z,97377.81
2023-05-01T06:39:57.213Z,97376.34
2023-05-01T06:45:01.160Z,97363.34
2023-05-01T06:50:06.025Z,97362.06
2023-05-01T06:55:12.466Z,97362.16
2023-05-01T07:00:17.675Z,97353.94
2023-05-01T07:05:21.253Z,97352.06
2023-05-01T07:10:26.109Z,97350.56
2023-05-01T07:15:29.841Z,97345.75
2023-05-01T07:20:33.045Z,97333.38
2023-05-01T07:25:38.374Z,97334.88
2023-05-01T07:30:41.872Z,97327.38
2023-05-01T07:35:45.260Z,97318.66
2023-05-01T07:40:53.497Z,97314.69
2023-05-01T07:45:58.870Z,97298.47
2023-05-01T07:51:04.398Z,97291.72
2023-05-01T07:56:10.170Z,97294.78
2023-05-01T08:01:13.583Z,97285.09
2023-05-01T08:06:17.107Z,97283.38
2023-05-01T08:11:22.164Z,97275.91
2023-05-01T08:16:25.550Z,97280.66
2023-05-01T08:21:28.967Z,97272.41
2023-05-01T08:26:33.681Z,97266.88
2023-05-01T08:31:38.064Z,97247.50
2023-05-01T08:36:41.673Z,97247.09
2023-05-01T08:41:48.553Z,97248.06
2023-05-01T08:47:01.409Z,97240.09
2023-05-01T08:52:07.713Z,97224.31
2023-05-01T08:57:13.684Z,97232.41
2023-05-01T09:02:17.228Z,97227.81
2023-05-01T09:07:20.568Z,97206.31
2023-05-01T09:12:27.290Z,97212.38
2023-05-01T09:17:31.904Z,97220.63
2023-05-01T09:22:36.577Z,97214.53
2023-05-01T09:27:41.502Z,97211.13
2023-05-01T09:32:44.762Z,97207.72
2023-05-01T09:37:51.286Z,97200.25
2023-05-01T09:42:56.531Z,97186.72
2023-05-01T09:48:11.739Z,97192.91
2023-05-01T09:53:15.982Z,97186.25
2023-05-01T09:58:29.505Z,97180.59
2023-05-01T10:03:34.032Z,97168.94
2023-05-01T10:08:48.176Z,97172.38
2023-05-01T10:14:09.464Z,97171.44
2023-05-01T10:19:13.963Z,97143.06
2023-05-01T10:24:18.417Z,97153.59
2023-05-01T10:29:25.663Z,97164.94
2023-05-01T10:34:30.089Z,97155.53
2023-05-01T10:39:34.456Z,97155.00
2023-05-01T10:44:40.209Z,97152.16
2023-05-01T10:50:05.979Z,97150.50
2023-05-01T10:55:34.806Z,97145.75
2023-05-01T11:00:39.480Z,97126.56
2023-05-01T11:06:06.712Z,97127.41
2023-05-01T11:11:49.480Z,97122.84
2023-05-01T11:16:55.263Z,97129.94
2023-05-01T11:21:58.845Z,97108.31
2023-05-01T11:27:02.964Z,97114.25
2023-05-01T11:32:09.523Z,97106.94
2023-05-01T11:37:12.784Z,97110.47
2023-05-01T11:42:16.174Z,97094.03
2023-05-01T11:47:20.931Z,97105.25
2023-05-01T11:52:24.478Z,97098.16
2023-05-01T11:57:27.665Z,97100.97
2023-05-01T12:02:32.515Z,97090.88
2023-05-01T12:07:37.578Z,97087.97
2023-05-01T12:12:41.381Z,97095.28
2023-05-01T12:17:48.340Z,97087.56
2023-05-01T12:22:51.830Z,97083.34
2023-05-01T12:27:55.844Z,97089.56
2023-05-01T12:33:04.196Z,97079.25
2023-05-01T12:38:13.861Z,97078.19
2023-05-01T12:43:17.587Z,97077.25
2023-05-01T12:48:22.870Z,97084.31
2023-05-01T12:53:28.074Z,97078.81
2023-05-01T12:58:38.378Z,97082.38
2023-05-01T13:03:45.161Z,97093.22
2023-05-01T13:08:48.452Z,97086.81
2023-05-01T13:13:51.719Z,97082.16
2023-05-01T13:18:56.389Z,97074.31
2023-05-01T13:24:00.852Z,97080.13
2023-05-01T13:29:05.900Z,97077.63
2023-05-01T13:34:10.711Z,97077.13
2023-05-01T13:39:21.201Z,97075.50
2023-05-01T13:44:24.780Z,97079.22
2023-05-01T13:49:29.516Z,97078.25
2023-05-01T13:54:32.984Z,97083.34
2023-05-01T13:59:40.936Z,97088.91
2023-05-01T14:04:45.715Z,97095.44
2023-05-01T14:09:57.271Z,97095.56
2023-05-01T14:15:01.772Z,97097.72
2023-05-01T14:20:09.873Z,97103.78
2023-05-01T14:25:23.651Z,97104.59
2023-05-01T14:30:30.333Z,97102.53
2023-05-01T14:35:36.350Z,97094.84
2023-05-01T14:40:42.020Z,97103.13
2023-05-01T14:45:46.608Z,97112.09
2023-05-01T14:50:51.708Z,97109.28
2023-05-01T14:55:55.314Z,97125.44
2023-05-01T15:00:58.783Z,97127.09
2023-05-01T15:06:04.223Z,97122.94
2023-05-01T15:11:07.780Z,97124.44
2023-05-01T15:16:11.390Z,97134.19
2023-05-01T15:21:16.099Z,97129.22
2023-05-01T15:26:19.360Z,97130.72
2023-05-01T15:31:22.898Z,97132.81
2023-05-01T15:36:27.636Z,97136.47
2023-05-01T15:41:31.092Z,97138.91
2023-05-01T15:46:35.681Z,97139.16
2023-05-01T15:51:41.310Z,97141.66
2023-05-01T15:56:45.473Z,97145.16
2023-05-01T16:01:49.121Z,97155.03
2023-05-01T16:06:53.851Z,97153.75
2023-05-01T16:11:57.196Z,97160.94
2023-05-01T16:17:00.570Z,97161.69
2023-05-01T16:22:07.007Z,97164.13
2023-05-01T16:27:13.628Z,97167.03
2023-05-01T16:32:18.313Z,97161.25
2023-05-01T16:37:26.913Z,97154.63
2023-05-01T16:42:30.328Z,97158.84
2023-05-01T16:47:33.623Z,97164.66
2023-05-01T16:52:39.405Z,97163.38
2023-05-01T16:57:44.229Z,97158.84
2023-05-01T17:02:49.626Z,97148.16
2023-05-01T17:07:54.377Z,97149.63
2023-05-01T17:12:58.223Z,97147.72
2023-05-01T17:18:01.709Z,97152.00
2023-05-01T17:23:06.332Z,97146.50
2023-05-01T17:28:09.752Z,97148.50
2023-05-01T17:33:13.046Z,97144.13
2023-05-01T17:38:17.996Z,97144.72
2023-05-01T17:43:21.709Z,97142.25
2023-05-01T17:48:24.990Z,97145.03
2023-05-01T17:53:29.701Z,97150.09
2023-05-01T17:58:33.284Z,97158.09
2023-05-01T18:03:36.781Z,97153.91
2023-05-01T18:08:41.827Z,97148.59
2023-05-01T18:13:48.052Z,97142.03
2023-05-01T18:18:51.426Z,97146.53
2023-05-01T18:23:56.163Z,97146.72
2023-05-01T18:28:59.728Z,97154.69
2023-05-01T18:34:03.646Z,97151.41
2023-05-01T18:39:09.404Z,97161.59
2023-05-01T18:44:13.771Z,97159.66
2023-05-01T18:49:21.049Z,97164.97
2023-05-01T18:54:26.675Z,97175.59
2023-05-01T18:59:32.965Z,97180.09
2023-05-01T19:04:49.150Z,97181.22
2023-05-01T19:09:54.429Z,97190.84
2023-05-01T19:15:01.360Z,97195.47
2023-05-01T19:20:06.233Z,97199.50
2023-05-01T19:25:11.606Z,97187.09
2023-05-01T19:30:15.231Z,97194.34
2023-05-01T19:35:18.519Z,97201.34
2023-05-01T19:40:23.588Z,97215.44
2023-05-01T19:45:27.261Z,97206.19
2023-05-01T19:50:32.252Z,97219.44
2023-05-01T19:55:40.642Z,97217.31
2023-05-01T20:00:44.290Z,97232.09
2023-05-01T20:05:47.650Z,97241.41
2023-05-01T20:10:52.928Z,97243.03
2023-05-01T20:15:56.402Z,97243.53
2023-05-01T20:20:59.643Z,97251.28
2023-05-01T20:26:04.932Z,97250.69
2023-05-01T20:31:08.316Z,97245.97
2023-05-01T20:36:12.324Z,97255.31
2023-05-01T20:41:17.109Z,97260.75
2023-05-01T20:46:20.485Z,97259.53
2023-05-01T20:51:24.060Z,97266.78
2023-05-01T20:56:28.712Z,97266.66
2023-05-01T21:01:32.861Z,97261.63
2023-05-01T21:06:36.669Z,97260.13
2023-05-01T21:11:42.333Z,97267.44
2023-05-01T21:16:45.693Z,97273.69
2023-05-01T21:21:49.057Z,97280.56
2023-05-01T21:26:55.093Z,97275.66
2023-05-01T21:31:58.469Z,97273.50
2023-05-01T21:37:02.039Z,97276.94
2023-05-01T21:42:06.815Z,97278.97
2023-05-01T21:47:10.742Z,97281.78
2023-05-01T21:52:14.875Z,97284.03
2023-05-01T21:57:19.518Z,97282.06
2023-05-01T22:02:22.958Z,97282.41
2023-05-01T22:07:26.840Z,97289.78
2023-05-01T22:12:31.711Z,97284.66
2023-05-01T22:17:34.958Z,97281.22
2023-05-01T22:22:40.990Z,97286.16
2023-05-01T22:27:45.939Z,97288.66
2023-05-01T22:32:49.079Z,97299.66
2023-05-01T22:37:52.387Z,97292.25
2023-05-01T22:42:57.154Z,97292.84
2023-05-01T22:48:00.731Z,97285.41
2023-05-01T22:53:04.276Z,97296.06
2023-05-01T22:58:09.089Z,97303.84
2023-05-01T23:03:12.411Z,97302.94
2023-05-01T23:08:15.877Z,97302.50
2023-05-01T23:13:23.590Z,97312.72
2023-05-01T23:18:34.296Z,97313.69
2023-05-01T23:23:42.944Z,97312.00
2023-05-01T23:28:47.633Z,97321.88
2023-05-01T23:33:50.928Z,97317.09
2023-05-01T23:38:54.602Z,97318.97
2023-05-01T23:44:00.374Z,97315.28
2023-05-01T23:49:03.897Z,97316.53
2023-05-01T23:54:07.307Z,97313.28
2023-05-01T23:59:11.942Z,97314.63
